sensor_id;sensor_type;location;lat;lon;timestamp;P1;durP1;ratioP1;P2;durP2;ratioP2
62905;SDS011;49003;51.038;3.602;2022-08-04T00:02:02;11.00;;;3.47;;
62905;SDS011;49003;51.038;3.602;2022-08-04T00:07:34;10.95;;;3.83;;
62905;SDS011;49003;51.038;3.602;2022-08-04T00:10:03;12.60;;;4.03;;
62905;SDS011;49003;51.038;3.602;2022-08-04T00:12:35;11.85;;;3.65;;
62905;SDS011;49003;51.038;3.602;2022-08-04T00:15:09;11.30;;;3.08;;
62905;SDS011;49003;51.038;3.602;2022-08-04T00:17:39;7.55;;;3.25;;
62905;SDS011;49003;51.038;3.602;2022-08-04T00:20:07;5.93;;;3.28;;
62905;SDS011;49003;51.038;3.602;2022-08-04T00:22:34;9.18;;;2.80;;
62905;SDS011;49003;51.038;3.602;2022-08-04T00:25:04;7.38;;;3.10;;
62905;SDS011;49003;51.038;3.602;2022-08-04T00:27:31;7.30;;;3.17;;
62905;SDS011;49003;51.038;3.602;2022-08-04T00:29:57;14.70;;;3.40;;
62905;SDS011;49003;51.038;3.602;2022-08-04T00:32:27;10.38;;;3.35;;
62905;SDS011;49003;51.038;3.602;2022-08-04T00:34:53;12.57;;;4.10;;
62905;SDS011;49003;51.038;3.602;2022-08-04T00:37:21;13.15;;;3.53;;
62905;SDS011;49003;51.038;3.602;2022-08-04T00:39:48;9.60;;;3.05;;
62905;SDS011;49003;51.038;3.602;2022-08-04T00:42:36;8.80;;;3.10;;
62905;SDS011;49003;51.038;3.602;2022-08-04T00:53:17;9.23;;;4.03;;
62905;SDS011;49003;51.038;3.602;2022-08-04T00:56:14;14.15;;;4.40;;
62905;SDS011;49003;51.038;3.602;2022-08-04T00:58:58;10.70;;;3.97;;
62905;SDS011;49003;51.038;3.602;2022-08-04T01:04:48;7.95;;;3.95;;
62905;SDS011;49003;51.038;3.602;2022-08-04T01:07:43;10.05;;;4.47;;
62905;SDS011;49003;51.038;3.602;2022-08-04T01:31:05;11.00;;;3.92;;
62905;SDS011;49003;51.038;3.602;2022-08-04T01:33:41;11.75;;;3.90;;
62905;SDS011;49003;51.038;3.602;2022-08-04T01:36:12;10.85;;;4.03;;
62905;SDS011;49003;51.038;3.602;2022-08-04T01:38:39;10.05;;;4.07;;
62905;SDS011;49003;51.038;3.602;2022-08-04T01:41:13;11.02;;;4.57;;
62905;SDS011;49003;51.038;3.602;2022-08-04T01:43:40;9.73;;;4.28;;
62905;SDS011;49003;51.038;3.602;2022-08-04T01:46:11;10.13;;;4.72;;
62905;SDS011;49003;51.038;3.602;2022-08-04T01:48:39;9.63;;;4.47;;
62905;SDS011;49003;51.038;3.602;2022-08-04T01:51:07;14.85;;;5.43;;
62905;SDS011;49003;51.038;3.602;2022-08-04T01:53:34;8.43;;;4.90;;
62905;SDS011;49003;51.038;3.602;2022-08-04T01:56:02;8.48;;;4.70;;
62905;SDS011;49003;51.038;3.602;2022-08-04T01:58:30;11.35;;;4.95;;
62905;SDS011;49003;51.038;3.602;2022-08-04T02:00:58;8.27;;;4.53;;
62905;SDS011;49003;51.038;3.602;2022-08-04T02:03:27;11.05;;;5.18;;
62905;SDS011;49003;51.038;3.602;2022-08-04T02:06:03;12.45;;;4.97;;
62905;SDS011;49003;51.038;3.602;2022-08-04T02:08:35;19.63;;;5.65;;
62905;SDS011;49003;51.038;3.602;2022-08-04T02:11:21;8.75;;;5.20;;
62905;SDS011;49003;51.038;3.602;2022-08-04T02:22:17;12.55;;;5.78;;
62905;SDS011;49003;51.038;3.602;2022-08-04T02:24:48;9.65;;;5.32;;
62905;SDS011;49003;51.038;3.602;2022-08-04T02:27:17;10.68;;;5.70;;
62905;SDS011;49003;51.038;3.602;2022-08-04T02:29:50;10.40;;;5.07;;
62905;SDS011;49003;51.038;3.602;2022-08-04T02:32:26;12.05;;;5.50;;
62905;SDS011;49003;51.038;3.602;2022-08-04T02:37:31;10.05;;;5.10;;
62905;SDS011;49003;51.038;3.602;2022-08-04T02:40:01;11.05;;;4.80;;
62905;SDS011;49003;51.038;3.602;2022-08-04T02:42:29;13.05;;;3.90;;
62905;SDS011;49003;51.038;3.602;2022-08-04T02:44:56;7.72;;;4.10;;
62905;SDS011;49003;51.038;3.602;2022-08-04T02:47:26;10.32;;;4.75;;
62905;SDS011;49003;51.038;3.602;2022-08-04T02:49:53;12.40;;;5.45;;
62905;SDS011;49003;51.038;3.602;2022-08-04T02:52:21;13.50;;;5.25;;
62905;SDS011;49003;51.038;3.602;2022-08-04T02:54:50;16.63;;;5.47;;
62905;SDS011;49003;51.038;3.602;2022-08-04T02:57:20;12.13;;;5.00;;
62905;SDS011;49003;51.038;3.602;2022-08-04T03:00:08;13.98;;;4.97;;
62905;SDS011;49003;51.038;3.602;2022-08-04T03:08:48;14.50;;;4.57;;
62905;SDS011;49003;51.038;3.602;2022-08-04T03:14:49;11.50;;;3.95;;
62905;SDS011;49003;51.038;3.602;2022-08-04T03:20:36;10.65;;;3.67;;
62905;SDS011;49003;51.038;3.602;2022-08-04T03:37:33;9.25;;;4.43;;
62905;SDS011;49003;51.038;3.602;2022-08-04T03:40:15;10.50;;;4.50;;
62905;SDS011;49003;51.038;3.602;2022-08-04T03:43:27;11.25;;;4.68;;
62905;SDS011;49003;51.038;3.602;2022-08-04T03:56:37;7.80;;;3.78;;
62905;SDS011;49003;51.038;3.602;2022-08-04T04:05:36;10.18;;;4.30;;
62905;SDS011;49003;51.038;3.602;2022-08-04T04:18:51;14.57;;;5.85;;
62905;SDS011;49003;51.038;3.602;2022-08-04T04:30:18;20.07;;;5.97;;
62905;SDS011;49003;51.038;3.602;2022-08-04T04:36:07;20.92;;;7.45;;
62905;SDS011;49003;51.038;3.602;2022-08-04T04:47:10;53.60;;;15.95;;
62905;SDS011;49003;51.038;3.602;2022-08-04T04:52:29;81.30;;;20.50;;
62905;SDS011;49003;51.038;3.602;2022-08-04T04:55:17;71.72;;;19.23;;
62905;SDS011;49003;51.038;3.602;2022-08-04T04:57:47;89.78;;;20.30;;
62905;SDS011;49003;51.038;3.602;2022-08-04T05:00:15;84.90;;;19.45;;
62905;SDS011;49003;51.038;3.602;2022-08-04T05:16:13;113.32;;;21.88;;
62905;SDS011;49003;51.038;3.602;2022-08-04T05:18:43;70.45;;;20.25;;
62905;SDS011;49003;51.038;3.602;2022-08-04T05:24:09;71.70;;;20.33;;
62905;SDS011;49003;51.038;3.602;2022-08-04T05:26:42;91.47;;;22.80;;
62905;SDS011;49003;51.038;3.602;2022-08-04T05:29:25;109.55;;;24.58;;
62905;SDS011;49003;51.038;3.602;2022-08-04T05:32:05;80.70;;;24.05;;
62905;SDS011;49003;51.038;3.602;2022-08-04T05:34:36;71.32;;;25.65;;
62905;SDS011;49003;51.038;3.602;2022-08-04T05:37:09;74.78;;;25.05;;
62905;SDS011;49003;51.038;3.602;2022-08-04T05:39:59;61.72;;;24.02;;
62905;SDS011;49003;51.038;3.602;2022-08-04T05:42:29;50.90;;;19.80;;
62905;SDS011;49003;51.038;3.602;2022-08-04T05:44:57;52.88;;;20.20;;
62905;SDS011;49003;51.038;3.602;2022-08-04T05:47:23;59.83;;;20.60;;
62905;SDS011;49003;51.038;3.602;2022-08-04T05:49:53;47.78;;;21.58;;
62905;SDS011;49003;51.038;3.602;2022-08-04T05:52:20;44.03;;;17.40;;
62905;SDS011;49003;51.038;3.602;2022-08-04T05:54:46;43.30;;;19.10;;
62905;SDS011;49003;51.038;3.602;2022-08-04T05:57:16;29.42;;;15.25;;
62905;SDS011;49003;51.038;3.602;2022-08-04T05:59:47;31.13;;;15.20;;
62905;SDS011;49003;51.038;3.602;2022-08-04T06:02:16;30.25;;;14.75;;
62905;SDS011;49003;51.038;3.602;2022-08-04T06:04:46;27.63;;;16.05;;
62905;SDS011;49003;51.038;3.602;2022-08-04T06:07:17;25.10;;;13.63;;
62905;SDS011;49003;51.038;3.602;2022-08-04T06:09:42;22.00;;;13.20;;
62905;SDS011;49003;51.038;3.602;2022-08-04T06:12:43;21.50;;;11.73;;
62905;SDS011;49003;51.038;3.602;2022-08-04T06:15:07;22.75;;;12.10;;
62905;SDS011;49003;51.038;3.602;2022-08-04T06:17:38;21.58;;;11.68;;
62905;SDS011;49003;51.038;3.602;2022-08-04T06:20:06;19.88;;;11.55;;
62905;SDS011;49003;51.038;3.602;2022-08-04T06:22:33;17.08;;;10.98;;
62905;SDS011;49003;51.038;3.602;2022-08-04T06:25:03;15.23;;;9.55;;
62905;SDS011;49003;51.038;3.602;2022-08-04T06:27:30;16.10;;;10.80;;
62905;SDS011;49003;51.038;3.602;2022-08-04T06:29:59;15.95;;;10.13;;
62905;SDS011;49003;51.038;3.602;2022-08-04T06:32:28;15.80;;;10.02;;
62905;SDS011;49003;51.038;3.602;2022-08-04T06:35:02;25.00;;;11.88;;
62905;SDS011;49003;51.038;3.602;2022-08-04T06:37:35;15.07;;;10.50;;
62905;SDS011;49003;51.038;3.602;2022-08-04T06:40:04;13.73;;;9.35;;
62905;SDS011;49003;51.038;3.602;2022-08-04T06:42:33;18.00;;;9.50;;
62905;SDS011;49003;51.038;3.602;2022-08-04T06:45:01;16.40;;;9.18;;
62905;SDS011;49003;51.038;3.602;2022-08-04T06:47:28;17.23;;;10.43;;
62905;SDS011;49003;51.038;3.602;2022-08-04T06:50:00;18.40;;;9.93;;
62905;SDS011;49003;51.038;3.602;2022-08-04T06:52:26;15.38;;;9.60;;
62905;SDS011;49003;51.038;3.602;2022-08-04T06:54:52;17.52;;;10.13;;
62905;SDS011;49003;51.038;3.602;2022-08-04T06:57:20;15.95;;;9.45;;
62905;SDS011;49003;51.038;3.602;2022-08-04T06:59:59;16.58;;;9.27;;
62905;SDS011;49003;51.038;3.602;2022-08-04T07:02:37;14.98;;;9.55;;
62905;SDS011;49003;51.038;3.602;2022-08-04T07:05:08;14.38;;;8.30;;
62905;SDS011;49003;51.038;3.602;2022-08-04T07:07:34;15.77;;;7.60;;
62905;SDS011;49003;51.038;3.602;2022-08-04T07:10:03;10.90;;;7.90;;
62905;SDS011;49003;51.038;3.602;2022-08-04T07:12:31;10.55;;;8.20;;
62905;SDS011;49003;51.038;3.602;2022-08-04T07:14:57;10.20;;;7.38;;
62905;SDS011;49003;51.038;3.602;2022-08-04T07:17:23;13.18;;;7.60;;
62905;SDS011;49003;51.038;3.602;2022-08-04T07:19:54;11.32;;;7.10;;
62905;SDS011;49003;51.038;3.602;2022-08-04T07:22:23;10.23;;;6.43;;
62905;SDS011;49003;51.038;3.602;2022-08-04T07:24:54;8.63;;;6.35;;
62905;SDS011;49003;51.038;3.602;2022-08-04T07:27:21;9.85;;;6.05;;
62905;SDS011;49003;51.038;3.602;2022-08-04T07:29:49;7.68;;;6.10;;
62905;SDS011;49003;51.038;3.602;2022-08-04T07:32:15;8.82;;;5.60;;
62905;SDS011;49003;51.038;3.602;2022-08-04T07:34:44;8.43;;;5.40;;
62905;SDS011;49003;51.038;3.602;2022-08-04T07:37:14;8.77;;;5.20;;
62905;SDS011;49003;51.038;3.602;2022-08-04T07:39:40;10.52;;;5.57;;
62905;SDS011;49003;51.038;3.602;2022-08-04T07:42:06;8.02;;;5.05;;
62905;SDS011;49003;51.038;3.602;2022-08-04T07:44:32;8.75;;;4.70;;
62905;SDS011;49003;51.038;3.602;2022-08-04T07:47:00;9.93;;;5.25;;
62905;SDS011;49003;51.038;3.602;2022-08-04T07:49:30;9.80;;;4.95;;
62905;SDS011;49003;51.038;3.602;2022-08-04T07:51:56;11.65;;;5.28;;
62905;SDS011;49003;51.038;3.602;2022-08-04T07:54:24;9.10;;;5.55;;
62905;SDS011;49003;51.038;3.602;2022-08-04T07:56:51;8.30;;;5.20;;
62905;SDS011;49003;51.038;3.602;2022-08-04T07:59:17;7.63;;;4.70;;
62905;SDS011;49003;51.038;3.602;2022-08-04T08:01:44;8.43;;;5.13;;
62905;SDS011;49003;51.038;3.602;2022-08-04T08:04:13;13.20;;;5.50;;
62905;SDS011;49003;51.038;3.602;2022-08-04T08:06:39;5.75;;;4.60;;
62905;SDS011;49003;51.038;3.602;2022-08-04T08:11:38;7.50;;;4.43;;
62905;SDS011;49003;51.038;3.602;2022-08-04T08:14:11;6.18;;;4.82;;
62905;SDS011;49003;51.038;3.602;2022-08-04T08:16:40;8.27;;;5.18;;
62905;SDS011;49003;51.038;3.602;2022-08-04T08:19:06;7.57;;;4.82;;
62905;SDS011;49003;51.038;3.602;2022-08-04T08:21:34;8.25;;;5.05;;
62905;SDS011;49003;51.038;3.602;2022-08-04T08:24:00;9.18;;;5.00;;
62905;SDS011;49003;51.038;3.602;2022-08-04T08:26:26;5.25;;;4.53;;
62905;SDS011;49003;51.038;3.602;2022-08-04T08:28:52;6.82;;;4.93;;
62905;SDS011;49003;51.038;3.602;2022-08-04T08:31:19;9.90;;;5.15;;
62905;SDS011;49003;51.038;3.602;2022-08-04T08:33:46;14.57;;;4.82;;
62905;SDS011;49003;51.038;3.602;2022-08-04T08:36:26;12.45;;;7.25;;
62905;SDS011;49003;51.038;3.602;2022-08-04T08:39:02;11.57;;;6.95;;
62905;SDS011;49003;51.038;3.602;2022-08-04T09:10:18;7.68;;;5.07;;
62905;SDS011;49003;51.038;3.602;2022-08-04T09:13:01;15.32;;;5.07;;
62905;SDS011;49003;51.038;3.602;2022-08-04T09:16:10;10.68;;;4.18;;
62905;SDS011;49003;51.038;3.602;2022-08-04T09:18:55;4.85;;;3.60;;
62905;SDS011;49003;51.038;3.602;2022-08-04T09:21:57;7.15;;;3.85;;
62905;SDS011;49003;51.038;3.602;2022-08-04T09:24:41;5.50;;;3.45;;
62905;SDS011;49003;51.038;3.602;2022-08-04T09:27:15;7.05;;;4.05;;
62905;SDS011;49003;51.038;3.602;2022-08-04T09:40:25;6.13;;;2.88;;
62905;SDS011;49003;51.038;3.602;2022-08-04T09:45:58;7.75;;;2.65;;
62905;SDS011;49003;51.038;3.602;2022-08-04T09:48:47;5.40;;;3.22;;
62905;SDS011;49003;51.038;3.602;2022-08-04T09:54:13;6.38;;;2.70;;
62905;SDS011;49003;51.038;3.602;2022-08-04T10:02:30;8.68;;;2.75;;
62905;SDS011;49003;51.038;3.602;2022-08-04T10:05:00;5.63;;;2.38;;
62905;SDS011;49003;51.038;3.602;2022-08-04T10:10:46;4.28;;;1.98;;
62905;SDS011;49003;51.038;3.602;2022-08-04T10:24:22;6.57;;;1.88;;
62905;SDS011;49003;51.038;3.602;2022-08-04T10:27:17;5.32;;;2.08;;
62905;SDS011;49003;51.038;3.602;2022-08-04T10:29:53;6.22;;;1.42;;
62905;SDS011;49003;51.038;3.602;2022-08-04T10:35:21;7.88;;;1.80;;
62905;SDS011;49003;51.038;3.602;2022-08-04T10:46:13;3.97;;;1.75;;
62905;SDS011;49003;51.038;3.602;2022-08-04T10:51:50;6.07;;;1.77;;
62905;SDS011;49003;51.038;3.602;2022-08-04T10:54:28;11.60;;;1.77;;
62905;SDS011;49003;51.038;3.602;2022-08-04T11:05:29;11.00;;;1.90;;
62905;SDS011;49003;51.038;3.602;2022-08-04T11:08:02;4.47;;;1.80;;
62905;SDS011;49003;51.038;3.602;2022-08-04T11:10:36;4.38;;;2.10;;
62905;SDS011;49003;51.038;3.602;2022-08-04T11:13:13;5.38;;;1.95;;
62905;SDS011;49003;51.038;3.602;2022-08-04T11:15:45;3.92;;;1.85;;
62905;SDS011;49003;51.038;3.602;2022-08-04T11:21:16;6.45;;;1.77;;
62905;SDS011;49003;51.038;3.602;2022-08-04T11:24:13;4.28;;;2.10;;
62905;SDS011;49003;51.038;3.602;2022-08-04T11:32:07;8.80;;;1.90;;
62905;SDS011;49003;51.038;3.602;2022-08-04T11:34:43;6.15;;;1.92;;
62905;SDS011;49003;51.038;3.602;2022-08-04T11:37:18;3.88;;;1.63;;
62905;SDS011;49003;51.038;3.602;2022-08-04T11:40:14;6.93;;;1.70;;
62905;SDS011;49003;51.038;3.602;2022-08-04T11:42:41;7.65;;;1.70;;
62905;SDS011;49003;51.038;3.602;2022-08-04T11:45:17;3.70;;;1.60;;
62905;SDS011;49003;51.038;3.602;2022-08-04T11:47:56;7.68;;;1.90;;
62905;SDS011;49003;51.038;3.602;2022-08-04T11:53:13;4.15;;;1.70;;
62905;SDS011;49003;51.038;3.602;2022-08-04T11:55:44;4.75;;;1.70;;
62905;SDS011;49003;51.038;3.602;2022-08-04T11:58:10;4.05;;;2.00;;
62905;SDS011;49003;51.038;3.602;2022-08-04T12:00:37;9.15;;;1.90;;
62905;SDS011;49003;51.038;3.602;2022-08-04T12:11:24;3.85;;;1.80;;
62905;SDS011;49003;51.038;3.602;2022-08-04T12:17:02;8.30;;;1.50;;
62905;SDS011;49003;51.038;3.602;2022-08-04T12:19:48;3.33;;;1.60;;
62905;SDS011;49003;51.038;3.602;2022-08-04T12:22:21;7.75;;;1.15;;
62905;SDS011;49003;51.038;3.602;2022-08-04T12:24:52;6.22;;;1.40;;
62905;SDS011;49003;51.038;3.602;2022-08-04T12:27:24;4.20;;;1.53;;
62905;SDS011;49003;51.038;3.602;2022-08-04T12:29:55;6.50;;;1.80;;
62905;SDS011;49003;51.038;3.602;2022-08-04T12:32:36;4.35;;;1.55;;
62905;SDS011;49003;51.038;3.602;2022-08-04T12:40:27;5.82;;;1.55;;
62905;SDS011;49003;51.038;3.602;2022-08-04T12:46:01;9.10;;;1.70;;
62905;SDS011;49003;51.038;3.602;2022-08-04T12:48:34;10.13;;;1.65;;
62905;SDS011;49003;51.038;3.602;2022-08-04T12:51:01;9.20;;;1.75;;
62905;SDS011;49003;51.038;3.602;2022-08-04T12:53:35;3.78;;;1.65;;
62905;SDS011;49003;51.038;3.602;2022-08-04T12:56:06;7.03;;;1.98;;
62905;SDS011;49003;51.038;3.602;2022-08-04T12:58:39;5.60;;;1.85;;
62905;SDS011;49003;51.038;3.602;2022-08-04T13:01:16;5.38;;;1.40;;
62905;SDS011;49003;51.038;3.602;2022-08-04T13:03:43;6.07;;;1.50;;
62905;SDS011;49003;51.038;3.602;2022-08-04T13:06:31;5.50;;;1.58;;
62905;SDS011;49003;51.038;3.602;2022-08-04T13:09:06;4.45;;;1.30;;
62905;SDS011;49003;51.038;3.602;2022-08-04T13:11:39;4.53;;;1.48;;
62905;SDS011;49003;51.038;3.602;2022-08-04T13:14:06;3.67;;;1.48;;
62905;SDS011;49003;51.038;3.602;2022-08-04T13:16:37;7.95;;;2.10;;
62905;SDS011;49003;51.038;3.602;2022-08-04T13:19:08;7.88;;;1.70;;
62905;SDS011;49003;51.038;3.602;2022-08-04T13:21:39;9.35;;;2.17;;
62905;SDS011;49003;51.038;3.602;2022-08-04T13:24:11;10.95;;;2.00;;
62905;SDS011;49003;51.038;3.602;2022-08-04T13:26:55;8.32;;;2.10;;
62905;SDS011;49003;51.038;3.602;2022-08-04T13:29:22;8.27;;;1.95;;
62905;SDS011;49003;51.038;3.602;2022-08-04T13:31:52;7.05;;;2.17;;
62905;SDS011;49003;51.038;3.602;2022-08-04T13:34:18;6.45;;;2.30;;
62905;SDS011;49003;51.038;3.602;2022-08-04T13:36:45;7.15;;;1.85;;
62905;SDS011;49003;51.038;3.602;2022-08-04T13:39:14;5.93;;;2.38;;
62905;SDS011;49003;51.038;3.602;2022-08-04T13:41:44;8.65;;;2.25;;
62905;SDS011;49003;51.038;3.602;2022-08-04T13:44:17;9.13;;;2.47;;
62905;SDS011;49003;51.038;3.602;2022-08-04T13:46:49;5.97;;;2.38;;
62905;SDS011;49003;51.038;3.602;2022-08-04T13:49:19;3.97;;;1.90;;
62905;SDS011;49003;51.038;3.602;2022-08-04T13:51:46;4.88;;;2.20;;
62905;SDS011;49003;51.038;3.602;2022-08-04T13:54:17;5.75;;;2.20;;
62905;SDS011;49003;51.038;3.602;2022-08-04T13:56:49;7.05;;;2.25;;
62905;SDS011;49003;51.038;3.602;2022-08-04T14:01:55;5.60;;;1.58;;
62905;SDS011;49003;51.038;3.602;2022-08-04T14:04:24;6.47;;;1.88;;
62905;SDS011;49003;51.038;3.602;2022-08-04T14:07:05;8.77;;;2.08;;
62905;SDS011;49003;51.038;3.602;2022-08-04T14:09:39;4.78;;;1.90;;
62905;SDS011;49003;51.038;3.602;2022-08-04T14:12:07;6.00;;;1.63;;
62905;SDS011;49003;51.038;3.602;2022-08-04T14:14:36;4.78;;;1.67;;
62905;SDS011;49003;51.038;3.602;2022-08-04T14:17:16;4.43;;;2.00;;
62905;SDS011;49003;51.038;3.602;2022-08-04T14:19:56;10.52;;;1.75;;
62905;SDS011;49003;51.038;3.602;2022-08-04T14:25:05;3.13;;;1.45;;
62905;SDS011;49003;51.038;3.602;2022-08-04T14:27:47;12.57;;;1.45;;
62905;SDS011;49003;51.038;3.602;2022-08-04T14:32:58;4.95;;;1.45;;
62905;SDS011;49003;51.038;3.602;2022-08-04T14:35:30;4.38;;;1.38;;
62905;SDS011;49003;51.038;3.602;2022-08-04T14:38:00;2.80;;;1.30;;
62905;SDS011;49003;51.038;3.602;2022-08-04T14:40:28;4.40;;;1.52;;
62905;SDS011;49003;51.038;3.602;2022-08-04T14:42:55;5.38;;;1.80;;
62905;SDS011;49003;51.038;3.602;2022-08-04T14:45:55;5.60;;;1.65;;
62905;SDS011;49003;51.038;3.602;2022-08-04T14:48:18;7.82;;;1.85;;
62905;SDS011;49003;51.038;3.602;2022-08-04T14:50:47;2.92;;;1.40;;
62905;SDS011;49003;51.038;3.602;2022-08-04T14:53:20;4.32;;;1.75;;
62905;SDS011;49003;51.038;3.602;2022-08-04T14:55:51;4.55;;;1.70;;
62905;SDS011;49003;51.038;3.602;2022-08-04T14:58:39;6.78;;;1.73;;
62905;SDS011;49003;51.038;3.602;2022-08-04T15:01:08;14.15;;;3.17;;
62905;SDS011;49003;51.038;3.602;2022-08-04T15:03:36;10.63;;;2.28;;
62905;SDS011;49003;51.038;3.602;2022-08-04T15:06:12;6.13;;;2.40;;
62905;SDS011;49003;51.038;3.602;2022-08-04T15:08:37;8.30;;;2.20;;
62905;SDS011;49003;51.038;3.602;2022-08-04T15:11:03;11.70;;;3.00;;
62905;SDS011;49003;51.038;3.602;2022-08-04T15:13:30;7.03;;;2.03;;
62905;SDS011;49003;51.038;3.602;2022-08-04T15:15:56;12.07;;;2.13;;
62905;SDS011;49003;51.038;3.602;2022-08-04T15:18:25;7.53;;;2.35;;
62905;SDS011;49003;51.038;3.602;2022-08-04T15:20:54;7.57;;;2.08;;
62905;SDS011;49003;51.038;3.602;2022-08-04T15:23:22;5.68;;;1.95;;
62905;SDS011;49003;51.038;3.602;2022-08-04T15:25:52;7.18;;;1.80;;
62905;SDS011;49003;51.038;3.602;2022-08-04T15:28:20;8.35;;;1.75;;
62905;SDS011;49003;51.038;3.602;2022-08-04T15:30:51;5.32;;;1.70;;
62905;SDS011;49003;51.038;3.602;2022-08-04T15:33:21;7.78;;;1.90;;
62905;SDS011;49003;51.038;3.602;2022-08-04T15:35:53;10.60;;;2.15;;
62905;SDS011;49003;51.038;3.602;2022-08-04T15:38:43;5.22;;;1.95;;
62905;SDS011;49003;51.038;3.602;2022-08-04T15:41:25;6.53;;;2.30;;
62905;SDS011;49003;51.038;3.602;2022-08-04T15:49:24;4.72;;;2.15;;
62905;SDS011;49003;51.038;3.602;2022-08-04T15:52:00;4.90;;;1.90;;
62905;SDS011;49003;51.038;3.602;2022-08-04T15:54:35;4.70;;;1.83;;
62905;SDS011;49003;51.038;3.602;2022-08-04T15:57:04;8.18;;;1.98;;
62905;SDS011;49003;51.038;3.602;2022-08-04T16:12:57;5.15;;;1.90;;
62905;SDS011;49003;51.038;3.602;2022-08-04T16:18:01;3.95;;;2.00;;
62905;SDS011;49003;51.038;3.602;2022-08-04T16:20:27;6.70;;;2.20;;
62905;SDS011;49003;51.038;3.602;2022-08-04T16:22:56;4.50;;;1.90;;
62905;SDS011;49003;51.038;3.602;2022-08-04T16:25:43;5.63;;;1.90;;
62905;SDS011;49003;51.038;3.602;2022-08-04T16:31:00;9.77;;;2.05;;
62905;SDS011;49003;51.038;3.602;2022-08-04T16:33:26;5.45;;;1.85;;
62905;SDS011;49003;51.038;3.602;2022-08-04T16:35:54;6.13;;;1.70;;
62905;SDS011;49003;51.038;3.602;2022-08-04T16:38:21;4.05;;;1.85;;
62905;SDS011;49003;51.038;3.602;2022-08-04T16:40:59;7.45;;;1.77;;
62905;SDS011;49003;51.038;3.602;2022-08-04T16:43:29;8.38;;;1.60;;
62905;SDS011;49003;51.038;3.602;2022-08-04T16:45:58;4.25;;;1.95;;
62905;SDS011;49003;51.038;3.602;2022-08-04T16:48:30;6.57;;;2.08;;
62905;SDS011;49003;51.038;3.602;2022-08-04T16:51:11;6.25;;;1.75;;
62905;SDS011;49003;51.038;3.602;2022-08-04T16:56:08;7.30;;;1.80;;
62905;SDS011;49003;51.038;3.602;2022-08-04T16:58:38;5.65;;;1.75;;
62905;SDS011;49003;51.038;3.602;2022-08-04T17:01:05;4.20;;;1.55;;
62905;SDS011;49003;51.038;3.602;2022-08-04T17:03:32;5.28;;;1.58;;
62905;SDS011;49003;51.038;3.602;2022-08-04T17:08:43;5.97;;;1.42;;
62905;SDS011;49003;51.038;3.602;2022-08-04T17:11:12;2.38;;;1.42;;
62905;SDS011;49003;51.038;3.602;2022-08-04T17:13:41;5.00;;;1.70;;
62905;SDS011;49003;51.038;3.602;2022-08-04T17:16:09;3.55;;;1.30;;
62905;SDS011;49003;51.038;3.602;2022-08-04T17:18:41;5.22;;;1.90;;
62905;SDS011;49003;51.038;3.602;2022-08-04T17:21:12;4.45;;;1.75;;
62905;SDS011;49003;51.038;3.602;2022-08-04T17:23:44;8.27;;;1.77;;
62905;SDS011;49003;51.038;3.602;2022-08-04T17:26:14;5.65;;;1.27;;
62905;SDS011;49003;51.038;3.602;2022-08-04T17:28:44;6.65;;;1.90;;
62905;SDS011;49003;51.038;3.602;2022-08-04T17:31:11;5.13;;;1.73;;
62905;SDS011;49003;51.038;3.602;2022-08-04T17:33:43;3.97;;;1.50;;
62905;SDS011;49003;51.038;3.602;2022-08-04T17:36:10;6.68;;;1.80;;
62905;SDS011;49003;51.038;3.602;2022-08-04T17:38:40;3.60;;;1.33;;
62905;SDS011;49003;51.038;3.602;2022-08-04T17:41:08;3.83;;;1.60;;
62905;SDS011;49003;51.038;3.602;2022-08-04T17:48:50;5.90;;;1.33;;
62905;SDS011;49003;51.038;3.602;2022-08-04T17:51:45;3.83;;;1.35;;
62905;SDS011;49003;51.038;3.602;2022-08-04T17:54:15;6.13;;;1.60;;
62905;SDS011;49003;51.038;3.602;2022-08-04T17:56:46;7.03;;;1.63;;
62905;SDS011;49003;51.038;3.602;2022-08-04T18:01:59;9.25;;;1.80;;
62905;SDS011;49003;51.038;3.602;2022-08-04T18:04:33;4.78;;;1.33;;
62905;SDS011;49003;51.038;3.602;2022-08-04T18:07:20;6.15;;;2.30;;
62905;SDS011;49003;51.038;3.602;2022-08-04T18:10:06;6.65;;;1.50;;
62905;SDS011;49003;51.038;3.602;2022-08-04T18:12:33;4.40;;;1.70;;
62905;SDS011;49003;51.038;3.602;2022-08-04T18:15:04;3.55;;;1.40;;
62905;SDS011;49003;51.038;3.602;2022-08-04T18:17:41;3.28;;;1.55;;
62905;SDS011;49003;51.038;3.602;2022-08-04T18:20:11;5.75;;;1.50;;
62905;SDS011;49003;51.038;3.602;2022-08-04T18:22:39;4.82;;;1.75;;
62905;SDS011;49003;51.038;3.602;2022-08-04T18:25:09;8.52;;;1.67;;
62905;SDS011;49003;51.038;3.602;2022-08-04T18:27:45;4.53;;;1.45;;
62905;SDS011;49003;51.038;3.602;2022-08-04T18:30:11;4.20;;;1.40;;
62905;SDS011;49003;51.038;3.602;2022-08-04T18:32:37;7.72;;;1.77;;
62905;SDS011;49003;51.038;3.602;2022-08-04T18:35:06;3.17;;;1.27;;
62905;SDS011;49003;51.038;3.602;2022-08-04T18:37:32;6.10;;;1.30;;
62905;SDS011;49003;51.038;3.602;2022-08-04T18:40:03;6.20;;;1.48;;
62905;SDS011;49003;51.038;3.602;2022-08-04T18:42:30;7.75;;;1.58;;
62905;SDS011;49003;51.038;3.602;2022-08-04T18:44:55;9.10;;;1.48;;
62905;SDS011;49003;51.038;3.602;2022-08-04T18:47:21;6.85;;;1.77;;
62905;SDS011;49003;51.038;3.602;2022-08-04T18:49:49;6.38;;;1.60;;
62905;SDS011;49003;51.038;3.602;2022-08-04T18:52:21;5.47;;;1.42;;
62905;SDS011;49003;51.038;3.602;2022-08-04T18:54:47;7.15;;;1.60;;
62905;SDS011;49003;51.038;3.602;2022-08-04T18:57:24;14.38;;;1.70;;
62905;SDS011;49003;51.038;3.602;2022-08-04T18:59:52;5.97;;;1.50;;
62905;SDS011;49003;51.038;3.602;2022-08-04T19:02:21;6.40;;;1.80;;
62905;SDS011;49003;51.038;3.602;2022-08-04T19:04:49;9.75;;;1.65;;
62905;SDS011;49003;51.038;3.602;2022-08-04T19:07:15;4.90;;;1.55;;
62905;SDS011;49003;51.038;3.602;2022-08-04T19:09:43;9.30;;;1.10;;
62905;SDS011;49003;51.038;3.602;2022-08-04T19:12:09;5.60;;;1.42;;
62905;SDS011;49003;51.038;3.602;2022-08-04T19:14:37;5.40;;;1.70;;
62905;SDS011;49003;51.038;3.602;2022-08-04T19:17:03;7.78;;;2.00;;
62905;SDS011;49003;51.038;3.602;2022-08-04T19:19:29;9.70;;;1.60;;
62905;SDS011;49003;51.038;3.602;2022-08-04T19:21:54;3.63;;;1.52;;
62905;SDS011;49003;51.038;3.602;2022-08-04T19:24:21;5.78;;;1.50;;
62905;SDS011;49003;51.038;3.602;2022-08-04T19:26:46;4.00;;;1.30;;
62905;SDS011;49003;51.038;3.602;2022-08-04T19:29:12;4.97;;;1.45;;
62905;SDS011;49003;51.038;3.602;2022-08-04T19:31:38;6.35;;;1.50;;
62905;SDS011;49003;51.038;3.602;2022-08-04T19:34:04;5.53;;;1.77;;
62905;SDS011;49003;51.038;3.602;2022-08-04T19:36:35;10.85;;;1.80;;
62905;SDS011;49003;51.038;3.602;2022-08-04T19:39:04;7.13;;;1.65;;
62905;SDS011;49003;51.038;3.602;2022-08-04T19:41:32;5.43;;;1.45;;
62905;SDS011;49003;51.038;3.602;2022-08-04T19:44:01;4.93;;;1.30;;
62905;SDS011;49003;51.038;3.602;2022-08-04T19:46:32;9.45;;;1.50;;
62905;SDS011;49003;51.038;3.602;2022-08-04T19:48:58;6.55;;;1.75;;
62905;SDS011;49003;51.038;3.602;2022-08-04T19:51:24;7.80;;;1.75;;
62905;SDS011;49003;51.038;3.602;2022-08-04T19:53:50;5.28;;;2.03;;
62905;SDS011;49003;51.038;3.602;2022-08-04T19:56:16;5.47;;;2.00;;
62905;SDS011;49003;51.038;3.602;2022-08-04T19:58:44;5.75;;;1.92;;
62905;SDS011;49003;51.038;3.602;2022-08-04T20:01:12;9.57;;;1.88;;
62905;SDS011;49003;51.038;3.602;2022-08-04T20:03:38;8.77;;;1.90;;
62905;SDS011;49003;51.038;3.602;2022-08-04T20:06:03;5.40;;;2.13;;
62905;SDS011;49003;51.038;3.602;2022-08-04T20:08:29;16.73;;;2.38;;
62905;SDS011;49003;51.038;3.602;2022-08-04T20:10:55;9.70;;;2.25;;
62905;SDS011;49003;51.038;3.602;2022-08-04T20:13:21;6.95;;;1.73;;
62905;SDS011;49003;51.038;3.602;2022-08-04T20:15:50;10.18;;;2.15;;